sensor_id;sensor_type;location;lat;lon;timestamp;P1;durP1;ratioP1;P2;durP2;ratioP2
4051;SDS011;2040;50.924;11.604;2023-03-07T00:00:42;13.30;;;6.70;;
4051;SDS011;2040;50.924;11.604;2023-03-07T00:03:12;18.77;;;8.97;;
4051;SDS011;2040;50.924;11.604;2023-03-07T00:05:38;11.50;;;5.87;;
4051;SDS011;2040;50.924;11.604;2023-03-07T00:08:04;13.60;;;5.40;;
4051;SDS011;2040;50.924;11.604;2023-03-07T00:10:30;14.10;;;7.27;;
4051;SDS011;2040;50.924;11.604;2023-03-07T00:12:56;14.80;;;6.80;;
4051;SDS011;2040;50.924;11.604;2023-03-07T00:15:21;12.97;;;6.93;;
4051;SDS011;2040;50.924;11.604;2023-03-07T00:17:47;17.70;;;7.70;;
4051;SDS011;2040;50.924;11.604;2023-03-07T00:20:13;16.80;;;8.40;;
4051;SDS011;2040;50.924;11.604;2023-03-07T00:22:39;9.50;;;5.70;;
4051;SDS011;2040;50.924;11.604;2023-03-07T00:25:05;17.13;;;8.33;;
4051;SDS011;2040;50.924;11.604;2023-03-07T00:27:31;15.90;;;7.80;;
4051;SDS011;2040;50.924;11.604;2023-03-07T00:29:58;17.40;;;7.63;;
4051;SDS011;2040;50.924;11.604;2023-03-07T00:32:24;20.97;;;8.13;;
4051;SDS011;2040;50.924;11.604;2023-03-07T00:34:50;16.37;;;7.83;;
4051;SDS011;2040;50.924;11.604;2023-03-07T00:37:16;18.27;;;7.50;;
4051;SDS011;2040;50.924;11.604;2023-03-07T00:39:42;19.00;;;8.37;;
4051;SDS011;2040;50.924;11.604;2023-03-07T00:42:07;12.07;;;6.97;;
4051;SDS011;2040;50.924;11.604;2023-03-07T00:44:33;12.70;;;5.80;;
4051;SDS011;2040;50.924;11.604;2023-03-07T00:46:59;15.20;;;7.77;;
4051;SDS011;2040;50.924;11.604;2023-03-07T00:49:25;16.50;;;7.47;;
4051;SDS011;2040;50.924;11.604;2023-03-07T00:51:51;14.57;;;6.20;;
4051;SDS011;2040;50.924;11.604;2023-03-07T00:54:16;11.93;;;6.60;;
4051;SDS011;2040;50.924;11.604;2023-03-07T00:56:42;15.87;;;6.60;;
4051;SDS011;2040;50.924;11.604;2023-03-07T00:59:07;16.30;;;7.10;;
4051;SDS011;2040;50.924;11.604;2023-03-07T01:01:33;13.63;;;7.43;;
4051;SDS011;2040;50.924;11.604;2023-03-07T01:03:59;18.23;;;6.43;;
4051;SDS011;2040;50.924;11.604;2023-03-07T01:06:26;17.30;;;7.77;;
4051;SDS011;2040;50.924;11.604;2023-03-07T01:08:54;13.40;;;5.83;;
4051;SDS011;2040;50.924;11.604;2023-03-07T01:11:20;13.27;;;6.07;;
4051;SDS011;2040;50.924;11.604;2023-03-07T01:13:46;16.47;;;6.93;;
4051;SDS011;2040;50.924;11.604;2023-03-07T01:16:22;13.57;;;6.30;;
4051;SDS011;2040;50.924;11.604;2023-03-07T01:18:50;13.53;;;6.87;;
4051;SDS011;2040;50.924;11.604;2023-03-07T01:23:48;16.47;;;6.73;;
4051;SDS011;2040;50.924;11.604;2023-03-07T01:26:15;13.30;;;6.87;;
4051;SDS011;2040;50.924;11.604;2023-03-07T01:28:42;20.97;;;6.23;;
4051;SDS011;2040;50.924;11.604;2023-03-07T01:31:07;10.83;;;5.90;;
4051;SDS011;2040;50.924;11.604;2023-03-07T01:33:33;14.00;;;6.87;;
4051;SDS011;2040;50.924;11.604;2023-03-07T01:35:59;14.67;;;6.90;;
4051;SDS011;2040;50.924;11.604;2023-03-07T01:38:24;13.33;;;6.73;;
4051;SDS011;2040;50.924;11.604;2023-03-07T01:40:52;12.47;;;6.77;;
4051;SDS011;2040;50.924;11.604;2023-03-07T01:43:22;14.50;;;5.73;;
4051;SDS011;2040;50.924;11.604;2023-03-07T01:48:15;12.77;;;5.90;;
4051;SDS011;2040;50.924;11.604;2023-03-07T01:50:41;15.20;;;6.50;;
4051;SDS011;2040;50.924;11.604;2023-03-07T01:53:07;14.27;;;6.60;;
4051;SDS011;2040;50.924;11.604;2023-03-07T01:55:34;14.83;;;5.87;;
4051;SDS011;2040;50.924;11.604;2023-03-07T01:58:05;12.73;;;5.90;;
4051;SDS011;2040;50.924;11.604;2023-03-07T02:00:34;9.43;;;5.63;;
4051;SDS011;2040;50.924;11.604;2023-03-07T02:05:52;15.90;;;5.83;;
4051;SDS011;2040;50.924;11.604;2023-03-07T02:08:23;11.43;;;5.50;;
4051;SDS011;2040;50.924;11.604;2023-03-07T02:10:51;13.23;;;5.57;;
4051;SDS011;2040;50.924;11.604;2023-03-07T02:13:17;16.23;;;6.77;;
4051;SDS011;2040;50.924;11.604;2023-03-07T02:15:43;15.27;;;6.57;;
4051;SDS011;2040;50.924;11.604;2023-03-07T02:18:08;14.63;;;6.57;;
4051;SDS011;2040;50.924;11.604;2023-03-07T02:20:54;11.23;;;5.70;;
4051;SDS011;2040;50.924;11.604;2023-03-07T02:26:06;12.20;;;7.00;;
4051;SDS011;2040;50.924;11.604;2023-03-07T02:28:40;14.83;;;6.03;;
4051;SDS011;2040;50.924;11.604;2023-03-07T02:31:06;13.47;;;6.30;;
4051;SDS011;2040;50.924;11.604;2023-03-07T02:33:33;11.07;;;5.67;;
4051;SDS011;2040;50.924;11.604;2023-03-07T02:36:00;14.60;;;5.93;;
4051;SDS011;2040;50.924;11.604;2023-03-07T02:38:29;11.00;;;5.80;;
4051;SDS011;2040;50.924;11.604;2023-03-07T02:40:56;12.53;;;5.90;;
4051;SDS011;2040;50.924;11.604;2023-03-07T02:43:22;14.40;;;6.00;;
4051;SDS011;2040;50.924;11.604;2023-03-07T02:45:48;11.80;;;5.23;;
4051;SDS011;2040;50.924;11.604;2023-03-07T02:48:14;11.03;;;5.00;;
4051;SDS011;2040;50.924;11.604;2023-03-07T02:50:39;15.23;;;5.37;;
4051;SDS011;2040;50.924;11.604;2023-03-07T02:53:05;10.23;;;5.00;;
4051;SDS011;2040;50.924;11.604;2023-03-07T02:55:30;14.03;;;6.27;;
4051;SDS011;2040;50.924;11.604;2023-03-07T02:57:57;11.60;;;6.07;;
4051;SDS011;2040;50.924;11.604;2023-03-07T03:00:23;10.90;;;5.03;;
4051;SDS011;2040;50.924;11.604;2023-03-07T03:02:48;13.90;;;5.80;;
4051;SDS011;2040;50.924;11.604;2023-03-07T03:05:14;12.03;;;4.80;;
4051;SDS011;2040;50.924;11.604;2023-03-07T03:07:39;15.53;;;6.40;;
4051;SDS011;2040;50.924;11.604;2023-03-07T03:10:05;13.73;;;5.70;;
4051;SDS011;2040;50.924;11.604;2023-03-07T03:12:31;9.10;;;4.53;;
4051;SDS011;2040;50.924;11.604;2023-03-07T03:14:57;11.77;;;5.50;;
4051;SDS011;2040;50.924;11.604;2023-03-07T03:17:22;13.50;;;5.83;;
4051;SDS011;2040;50.924;11.604;2023-03-07T03:19:48;10.63;;;4.73;;
4051;SDS011;2040;50.924;11.604;2023-03-07T03:22:14;22.03;;;5.30;;
4051;SDS011;2040;50.924;11.604;2023-03-07T03:24:40;10.80;;;5.60;;
4051;SDS011;2040;50.924;11.604;2023-03-07T03:27:06;10.77;;;5.47;;
4051;SDS011;2040;50.924;11.604;2023-03-07T03:29:32;8.83;;;4.50;;
4051;SDS011;2040;50.924;11.604;2023-03-07T03:31:58;10.47;;;5.37;;
4051;SDS011;2040;50.924;11.604;2023-03-07T03:34:23;7.23;;;4.27;;
4051;SDS011;2040;50.924;11.604;2023-03-07T03:36:49;8.97;;;5.37;;
4051;SDS011;2040;50.924;11.604;2023-03-07T03:39:16;12.90;;;5.60;;
4051;SDS011;2040;50.924;11.604;2023-03-07T03:41:42;10.93;;;4.90;;
4051;SDS011;2040;50.924;11.604;2023-03-07T03:44:07;9.40;;;4.60;;
4051;SDS011;2040;50.924;11.604;2023-03-07T03:46:33;11.10;;;5.80;;
4051;SDS011;2040;50.924;11.604;2023-03-07T03:49:00;7.70;;;5.30;;
4051;SDS011;2040;50.924;11.604;2023-03-07T03:51:28;7.00;;;4.87;;
4051;SDS011;2040;50.924;11.604;2023-03-07T03:53:55;8.73;;;5.20;;
4051;SDS011;2040;50.924;11.604;2023-03-07T03:56:24;6.00;;;3.80;;
4051;SDS011;2040;50.924;11.604;2023-03-07T03:58:51;10.77;;;5.47;;
4051;SDS011;2040;50.924;11.604;2023-03-07T04:01:19;9.37;;;4.33;;
4051;SDS011;2040;50.924;11.604;2023-03-07T04:03:47;10.77;;;4.90;;
4051;SDS011;2040;50.924;11.604;2023-03-07T04:06:24;9.80;;;5.20;;
4051;SDS011;2040;50.924;11.604;2023-03-07T04:08:54;8.17;;;3.77;;
4051;SDS011;2040;50.924;11.604;2023-03-07T04:11:21;10.30;;;4.33;;
4051;SDS011;2040;50.924;11.604;2023-03-07T04:13:47;10.80;;;4.90;;
4051;SDS011;2040;50.924;11.604;2023-03-07T04:16:13;9.43;;;4.10;;
4051;SDS011;2040;50.924;11.604;2023-03-07T04:18:39;7.87;;;4.53;;
4051;SDS011;2040;50.924;11.604;2023-03-07T04:21:05;8.30;;;4.27;;
4051;SDS011;2040;50.924;11.604;2023-03-07T04:23:31;8.77;;;4.33;;
4051;SDS011;2040;50.924;11.604;2023-03-07T04:25:58;9.30;;;5.00;;
4051;SDS011;2040;50.924;11.604;2023-03-07T04:28:26;7.27;;;4.03;;
4051;SDS011;2040;50.924;11.604;2023-03-07T04:30:53;9.90;;;4.37;;
4051;SDS011;2040;50.924;11.604;2023-03-07T04:33:20;10.37;;;4.70;;
4051;SDS011;2040;50.924;11.604;2023-03-07T04:35:46;7.93;;;4.50;;
4051;SDS011;2040;50.924;11.604;2023-03-07T04:38:13;7.30;;;3.87;;
4051;SDS011;2040;50.924;11.604;2023-03-07T04:40:39;8.77;;;4.43;;
4051;SDS011;2040;50.924;11.604;2023-03-07T04:43:05;7.97;;;4.13;;
4051;SDS011;2040;50.924;11.604;2023-03-07T04:45:31;7.07;;;4.60;;
4051;SDS011;2040;50.924;11.604;2023-03-07T04:48:00;8.30;;;4.30;;
4051;SDS011;2040;50.924;11.604;2023-03-07T04:50:25;8.80;;;3.87;;
4051;SDS011;2040;50.924;11.604;2023-03-07T04:52:51;12.13;;;4.47;;
4051;SDS011;2040;50.924;11.604;2023-03-07T04:55:16;12.53;;;4.77;;
4051;SDS011;2040;50.924;11.604;2023-03-07T04:57:42;9.90;;;4.00;;
4051;SDS011;2040;50.924;11.604;2023-03-07T05:00:08;11.77;;;5.40;;
4051;SDS011;2040;50.924;11.604;2023-03-07T05:02:34;9.77;;;4.63;;
4051;SDS011;2040;50.924;11.604;2023-03-07T05:05:00;4.20;;;3.00;;
4051;SDS011;2040;50.924;11.604;2023-03-07T05:07:26;11.40;;;5.60;;
4051;SDS011;2040;50.924;11.604;2023-03-07T05:09:53;8.20;;;4.10;;
4051;SDS011;2040;50.924;11.604;2023-03-07T05:12:19;7.20;;;4.03;;
4051;SDS011;2040;50.924;11.604;2023-03-07T05:14:45;9.60;;;5.20;;
4051;SDS011;2040;50.924;11.604;2023-03-07T05:17:11;7.50;;;4.17;;
4051;SDS011;2040;50.924;11.604;2023-03-07T05:19:36;9.00;;;4.47;;
4051;SDS011;2040;50.924;11.604;2023-03-07T05:22:02;8.07;;;4.07;;
4051;SDS011;2040;50.924;11.604;2023-03-07T05:24:29;7.90;;;3.93;;
4051;SDS011;2040;50.924;11.604;2023-03-07T05:26:54;9.47;;;4.50;;
4051;SDS011;2040;50.924;11.604;2023-03-07T05:29:21;9.20;;;4.63;;
4051;SDS011;2040;50.924;11.604;2023-03-07T05:31:47;9.43;;;3.27;;
4051;SDS011;2040;50.924;11.604;2023-03-07T05:34:12;8.83;;;4.03;;
4051;SDS011;2040;50.924;11.604;2023-03-07T05:36:39;9.87;;;5.10;;
4051;SDS011;2040;50.924;11.604;2023-03-07T05:39:05;8.77;;;4.67;;
4051;SDS011;2040;50.924;11.604;2023-03-07T05:41:31;8.30;;;3.77;;
4051;SDS011;2040;50.924;11.604;2023-03-07T05:43:56;7.57;;;4.50;;
4051;SDS011;2040;50.924;11.604;2023-03-07T05:46:23;6.60;;;3.50;;
4051;SDS011;2040;50.924;11.604;2023-03-07T05:48:49;6.87;;;3.17;;
4051;SDS011;2040;50.924;11.604;2023-03-07T05:51:14;5.77;;;3.17;;
4051;SDS011;2040;50.924;11.604;2023-03-07T05:53:40;9.80;;;4.63;;
4051;SDS011;2040;50.924;11.604;2023-03-07T05:56:06;13.07;;;5.23;;
4051;SDS011;2040;50.924;11.604;2023-03-07T05:58:32;9.07;;;4.43;;
4051;SDS011;2040;50.924;11.604;2023-03-07T06:00:57;10.20;;;4.80;;
4051;SDS011;2040;50.924;11.604;2023-03-07T06:03:26;8.67;;;5.07;;
4051;SDS011;2040;50.924;11.604;2023-03-07T06:05:51;6.03;;;3.17;;
4051;SDS011;2040;50.924;11.604;2023-03-07T06:08:17;8.20;;;4.60;;
4051;SDS011;2040;50.924;11.604;2023-03-07T06:10:42;8.17;;;4.80;;
4051;SDS011;2040;50.924;11.604;2023-03-07T06:13:13;10.13;;;5.50;;
4051;SDS011;2040;50.924;11.604;2023-03-07T06:15:40;6.87;;;4.30;;
4051;SDS011;2040;50.924;11.604;2023-03-07T06:18:06;10.93;;;5.13;;
4051;SDS011;2040;50.924;11.604;2023-03-07T06:20:31;10.13;;;4.33;;
4051;SDS011;2040;50.924;11.604;2023-03-07T06:22:57;8.53;;;4.47;;
4051;SDS011;2040;50.924;11.604;2023-03-07T06:25:25;7.73;;;4.20;;
4051;SDS011;2040;50.924;11.604;2023-03-07T06:27:50;12.50;;;5.03;;
4051;SDS011;2040;50.924;11.604;2023-03-07T06:30:16;6.27;;;3.90;;
4051;SDS011;2040;50.924;11.604;2023-03-07T06:32:41;5.90;;;3.40;;
4051;SDS011;2040;50.924;11.604;2023-03-07T06:35:07;7.13;;;3.53;;
4051;SDS011;2040;50.924;11.604;2023-03-07T06:37:33;5.30;;;3.20;;
4051;SDS011;2040;50.924;11.604;2023-03-07T06:39:59;5.37;;;3.00;;
4051;SDS011;2040;50.924;11.604;2023-03-07T06:42:29;6.23;;;3.10;;
4051;SDS011;2040;50.924;11.604;2023-03-07T06:44:55;5.70;;;3.47;;
4051;SDS011;2040;50.924;11.604;2023-03-07T06:47:20;6.30;;;3.67;;
4051;SDS011;2040;50.924;11.604;2023-03-07T06:49:46;6.80;;;3.50;;
4051;SDS011;2040;50.924;11.604;2023-03-07T06:52:11;4.33;;;3.00;;
4051;SDS011;2040;50.924;11.604;2023-03-07T06:54:37;5.90;;;3.00;;
4051;SDS011;2040;50.924;11.604;2023-03-07T06:57:02;4.30;;;2.80;;
4051;SDS011;2040;50.924;11.604;2023-03-07T06:59:28;3.73;;;2.30;;
4051;SDS011;2040;50.924;11.604;2023-03-07T07:01:54;5.97;;;3.23;;
4051;SDS011;2040;50.924;11.604;2023-03-07T07:04:19;4.10;;;2.60;;
4051;SDS011;2040;50.924;11.604;2023-03-07T07:06:45;5.87;;;3.43;;
4051;SDS011;2040;50.924;11.604;2023-03-07T07:09:11;6.23;;;2.70;;
4051;SDS011;2040;50.924;11.604;2023-03-07T07:11:38;4.57;;;2.80;;
4051;SDS011;2040;50.924;11.604;2023-03-07T07:14:03;4.53;;;2.53;;
4051;SDS011;2040;50.924;11.604;2023-03-07T07:16:29;4.60;;;2.80;;
4051;SDS011;2040;50.924;11.604;2023-03-07T07:18:57;6.10;;;2.47;;
4051;SDS011;2040;50.924;11.604;2023-03-07T07:21:23;6.07;;;3.07;;
4051;SDS011;2040;50.924;11.604;2023-03-07T07:23:48;8.63;;;3.07;;
4051;SDS011;2040;50.924;11.604;2023-03-07T07:26:14;4.10;;;2.97;;
4051;SDS011;2040;50.924;11.604;2023-03-07T07:28:39;3.53;;;2.53;;
4051;SDS011;2040;50.924;11.604;2023-03-07T07:31:05;5.73;;;3.73;;
4051;SDS011;2040;50.924;11.604;2023-03-07T07:33:30;4.70;;;2.50;;
4051;SDS011;2040;50.924;11.604;2023-03-07T07:35:56;3.83;;;2.13;;
4051;SDS011;2040;50.924;11.604;2023-03-07T07:38:21;4.63;;;3.03;;
4051;SDS011;2040;50.924;11.604;2023-03-07T07:40:47;3.60;;;2.37;;
4051;SDS011;2040;50.924;11.604;2023-03-07T07:43:16;3.63;;;2.43;;
4051;SDS011;2040;50.924;11.604;2023-03-07T07:45:42;8.10;;;2.30;;
4051;SDS011;2040;50.924;11.604;2023-03-07T07:48:07;2.27;;;2.00;;
4051;SDS011;2040;50.924;11.604;2023-03-07T07:50:34;3.83;;;2.40;;
4051;SDS011;2040;50.924;11.604;2023-03-07T07:52:59;4.33;;;2.70;;
4051;SDS011;2040;50.924;11.604;2023-03-07T07:55:25;3.43;;;2.20;;
4051;SDS011;2040;50.924;11.604;2023-03-07T07:57:51;3.17;;;2.33;;
4051;SDS011;2040;50.924;11.604;2023-03-07T08:00:18;4.67;;;2.43;;
4051;SDS011;2040;50.924;11.604;2023-03-07T08:02:48;3.57;;;2.60;;
4051;SDS011;2040;50.924;11.604;2023-03-07T08:05:18;4.53;;;3.27;;
4051;SDS011;2040;50.924;11.604;2023-03-07T08:07:45;4.50;;;3.00;;
4051;SDS011;2040;50.924;11.604;2023-03-07T08:10:11;4.33;;;2.90;;
4051;SDS011;2040;50.924;11.604;2023-03-07T08:12:40;3.83;;;2.90;;
4051;SDS011;2040;50.924;11.604;2023-03-07T08:15:08;5.53;;;3.37;;
4051;SDS011;2040;50.924;11.604;2023-03-07T08:17:35;4.67;;;2.90;;
4051;SDS011;2040;50.924;11.604;2023-03-07T08:20:01;5.80;;;3.23;;
4051;SDS011;2040;50.924;11.604;2023-03-07T08:22:32;5.37;;;3.07;;
4051;SDS011;2040;50.924;11.604;2023-03-07T08:24:58;6.57;;;3.97;;
4051;SDS011;2040;50.924;11.604;2023-03-07T08:27:24;5.43;;;3.30;;
4051;SDS011;2040;50.924;11.604;2023-03-07T08:29:51;8.57;;;3.50;;
4051;SDS011;2040;50.924;11.604;2023-03-07T08:32:16;7.17;;;3.40;;
4051;SDS011;2040;50.924;11.604;2023-03-07T08:34:42;7.40;;;3.37;;
4051;SDS011;2040;50.924;11.604;2023-03-07T08:37:07;6.90;;;3.40;;
4051;SDS011;2040;50.924;11.604;2023-03-07T08:39:34;7.53;;;4.30;;
4051;SDS011;2040;50.924;11.604;2023-03-07T08:42:00;6.87;;;3.80;;
4051;SDS011;2040;50.924;11.604;2023-03-07T08:44:25;5.87;;;3.50;;
4051;SDS011;2040;50.924;11.604;2023-03-07T08:46:51;9.83;;;4.07;;
4051;SDS011;2040;50.924;11.604;2023-03-07T08:49:17;6.43;;;3.77;;
4051;SDS011;2040;50.924;11.604;2023-03-07T08:51:42;5.73;;;3.80;;
4051;SDS011;2040;50.924;11.604;2023-03-07T08:54:10;6.43;;;4.10;;
4051;SDS011;2040;50.924;11.604;2023-03-07T08:56:36;10.80;;;5.40;;
4051;SDS011;2040;50.924;11.604;2023-03-07T08:59:01;8.20;;;3.57;;
4051;SDS011;2040;50.924;11.604;2023-03-07T09:01:27;5.53;;;3.30;;
4051;SDS011;2040;50.924;11.604;2023-03-07T09:03:52;5.50;;;3.60;;
4051;SDS011;2040;50.924;11.604;2023-03-07T09:06:18;5.20;;;3.20;;
4051;SDS011;2040;50.924;11.604;2023-03-07T09:08:45;7.23;;;4.73;;
4051;SDS011;2040;50.924;11.604;2023-03-07T09:11:12;8.33;;;4.43;;
4051;SDS011;2040;50.924;11.604;2023-03-07T09:13:38;8.13;;;3.60;;
4051;SDS011;2040;50.924;11.604;2023-03-07T09:16:04;5.00;;;3.30;;
4051;SDS011;2040;50.924;11.604;2023-03-07T09:18:31;7.90;;;3.90;;
4051;SDS011;2040;50.924;11.604;2023-03-07T09:20:58;6.80;;;3.70;;
4051;SDS011;2040;50.924;11.604;2023-03-07T09:23:24;5.80;;;3.33;;
4051;SDS011;2040;50.924;11.604;2023-03-07T09:25:50;5.83;;;3.27;;
4051;SDS011;2040;50.924;11.604;2023-03-07T09:28:15;5.73;;;3.43;;
4051;SDS011;2040;50.924;11.604;2023-03-07T09:30:41;7.83;;;3.80;;
4051;SDS011;2040;50.924;11.604;2023-03-07T09:33:07;11.43;;;4.10;;
4051;SDS011;2040;50.924;11.604;2023-03-07T09:35:32;8.17;;;3.30;;
4051;SDS011;2040;50.924;11.604;2023-03-07T09:37:58;7.70;;;3.70;;
4051;SDS011;2040;50.924;11.604;2023-03-07T09:40:24;6.17;;;3.90;;
4051;SDS011;2040;50.924;11.604;2023-03-07T09:42:53;7.17;;;4.17;;
4051;SDS011;2040;50.924;11.604;2023-03-07T09:56:13;6.67;;;4.33;;
4051;SDS011;2040;50.924;11.604;2023-03-07T09:58:46;8.30;;;4.13;;
4051;SDS011;2040;50.924;11.604;2023-03-07T10:01:19;6.80;;;4.10;;
4051;SDS011;2040;50.924;11.604;2023-03-07T10:06:23;6.90;;;3.67;;
4051;SDS011;2040;50.924;11.604;2023-03-07T10:08:58;6.00;;;3.77;;
4051;SDS011;2040;50.924;11.604;2023-03-07T10:19:50;6.50;;;3.50;;
4051;SDS011;2040;50.924;11.604;2023-03-07T10:22:28;5.00;;;3.33;;
4051;SDS011;2040;50.924;11.604;2023-03-07T10:27:46;5.30;;;3.10;;
4051;SDS011;2040;50.924;11.604;2023-03-07T10:30:15;5.37;;;3.60;;
4051;SDS011;2040;50.924;11.604;2023-03-07T10:32:43;4.97;;;3.30;;
4051;SDS011;2040;50.924;11.604;2023-03-07T10:35:18;5.90;;;3.20;;
4051;SDS011;2040;50.924;11.604;2023-03-07T10:38:02;4.30;;;2.97;;
4051;SDS011;2040;50.924;11.604;2023-03-07T10:40:42;5.13;;;3.33;;
4051;SDS011;2040;50.924;11.604;2023-03-07T10:43:22;4.43;;;3.43;;
4051;SDS011;2040;50.924;11.604;2023-03-07T10:45:55;6.53;;;3.67;;
4051;SDS011;2040;50.924;11.604;2023-03-07T10:48:23;6.33;;;3.40;;
4051;SDS011;2040;50.924;11.604;2023-03-07T10:51:05;7.40;;;3.23;;
4051;SDS011;2040;50.924;11.604;2023-03-07T10:53:50;6.17;;;3.37;;
4051;SDS011;2040;50.924;11.604;2023-03-07T10:56:17;6.90;;;4.10;;
4051;SDS011;2040;50.924;11.604;2023-03-07T11:01:29;6.53;;;3.57;;
4051;SDS011;2040;50.924;11.604;2023-03-07T11:04:03;7.97;;;4.23;;
4051;SDS011;2040;50.924;11.604;2023-03-07T11:08:56;7.53;;;4.00;;
4051;SDS011;2040;50.924;11.604;2023-03-07T11:11:31;6.63;;;3.90;;
4051;SDS011;2040;50.924;11.604;2023-03-07T11:14:07;9.40;;;3.37;;
4051;SDS011;2040;50.924;11.604;2023-03-07T11:16:38;8.40;;;3.90;;
4051;SDS011;2040;50.924;11.604;2023-03-07T11:19:23;9.07;;;3.47;;
4051;SDS011;2040;50.924;11.604;2023-03-07T11:21:59;5.00;;;3.37;;
4051;SDS011;2040;50.924;11.604;2023-03-07T11:24:28;7.03;;;3.47;;
4051;SDS011;2040;50.924;11.604;2023-03-07T11:26:56;8.70;;;4.00;;
4051;SDS011;2040;50.924;11.604;2023-03-07T11:29:23;9.13;;;4.60;;
4051;SDS011;2040;50.924;11.604;2023-03-07T11:34:51;7.03;;;3.17;;
4051;SDS011;2040;50.924;11.604;2023-03-07T11:40:20;8.03;;;4.10;;
4051;SDS011;2040;50.924;11.604;2023-03-07T11:43:35;7.40;;;3.43;;
4051;SDS011;2040;50.924;11.604;2023-03-07T11:48:31;4.50;;;3.10;;
4051;SDS011;2040;50.924;11.604;2023-03-07T11:51:23;7.17;;;3.50;;
4051;SDS011;2040;50.924;11.604;2023-03-07T11:56:37;4.13;;;3.20;;
4051;SDS011;2040;50.924;11.604;2023-03-07T12:01:49;6.50;;;3.20;;
4051;SDS011;2040;50.924;11.604;2023-03-07T12:07:22;4.87;;;3.40;;
4051;SDS011;2040;50.924;11.604;2023-03-07T12:13:10;6.70;;;3.80;;
4051;SDS011;2040;50.924;11.604;2023-03-07T12:15:52;5.93;;;3.47;;
4051;SDS011;2040;50.924;11.604;2023-03-07T12:24:13;10.07;;;3.50;;
4051;SDS011;2040;50.924;11.604;2023-03-07T12:26:49;7.53;;;3.50;;
4051;SDS011;2040;50.924;11.604;2023-03-07T12:29:51;5.47;;;3.30;;
4051;SDS011;2040;50.924;11.604;2023-03-07T12:32:23;4.97;;;3.20;;
4051;SDS011;2040;50.924;11.604;2023-03-07T12:34:54;6.63;;;3.50;;
4051;SDS011;2040;50.924;11.604;2023-03-07T12:37:41;9.07;;;4.50;;
4051;SDS011;2040;50.924;11.604;2023-03-07T12:40:22;6.33;;;3.70;;
4051;SDS011;2040;50.924;11.604;2023-03-07T12:43:00;6.80;;;3.60;;
4051;SDS011;2040;50.924;11.604;2023-03-07T12:45:54;7.10;;;3.67;;
4051;SDS011;2040;50.924;11.604;2023-03-07T12:48:38;7.37;;;3.17;;
4051;SDS011;2040;50.924;11.604;2023-03-07T12:54:16;5.27;;;3.00;;
4051;SDS011;2040;50.924;11.604;2023-03-07T12:57:01;4.30;;;2.70;;
4051;SDS011;2040;50.924;11.604;2023-03-07T12:59:32;5.47;;;2.90;;
4051;SDS011;2040;50.924;11.604;2023-03-07T13:02:20;6.00;;;3.13;;
4051;SDS011;2040;50.924;11.604;2023-03-07T13:04:52;5.73;;;3.20;;
4051;SDS011;2040;50.924;11.604;2023-03-07T13:07:24;7.93;;;4.07;;
4051;SDS011;2040;50.924;11.604;2023-03-07T13:09:52;7.57;;;3.63;;
4051;SDS011;2040;50.924;11.604;2023-03-07T13:15:03;4.20;;;2.87;;
4051;SDS011;2040;50.924;11.604;2023-03-07T13:27:53;5.10;;;3.33;;
4051;SDS011;2040;50.924;11.604;2023-03-07T13:30:23;5.83;;;3.23;;
4051;SDS011;2040;50.924;11.604;2023-03-07T13:37:55;6.27;;;3.60;;
4051;SDS011;2040;50.924;11.604;2023-03-07T13:53:20;6.57;;;4.17;;
4051;SDS011;2040;50.924;11.604;2023-03-07T13:55:59;3.97;;;3.10;;
4051;SDS011;2040;50.924;11.604;2023-03-07T13:58:43;7.70;;;3.33;;
4051;SDS011;2040;50.924;11.604;2023-03-07T14:01:30;4.23;;;3.10;;
4051;SDS011;2040;50.924;11.604;2023-03-07T14:09:42;4.43;;;3.00;;
4051;SDS011;2040;50.924;11.604;2023-03-07T14:23:47;6.83;;;3.30;;
4051;SDS011;2040;50.924;11.604;2023-03-07T14:28:46;6.37;;;3.37;;
4051;SDS011;2040;50.924;11.604;2023-03-07T14:31:28;3.77;;;2.93;;
4051;SDS011;2040;50.924;11.604;2023-03-07T14:33:55;7.20;;;2.60;;
4051;SDS011;2040;50.924;11.604;2023-03-07T14:36:26;10.50;;;3.60;;
4051;SDS011;2040;50.924;11.604;2023-03-07T14:38:55;7.37;;;3.27;;
4051;SDS011;2040;50.924;11.604;2023-03-07T14:41:31;4.10;;;2.93;;
4051;SDS011;2040;50.924;11.604;2023-03-07T14:44:24;4.57;;;2.83;;
4051;SDS011;2040;50.924;11.604;2023-03-07T14:49:50;5.07;;;3.57;;
4051;SDS011;2040;50.924;11.604;2023-03-07T14:52:31;4.53;;;3.00;;
4051;SDS011;2040;50.924;11.604;2023-03-07T14:55:01;5.10;;;3.60;;
4051;SDS011;2040;50.924;11.604;2023-03-07T15:02:47;7.07;;;2.97;;
4051;SDS011;2040;50.924;11.604;2023-03-07T15:05:35;3.67;;;2.80;;
4051;SDS011;2040;50.924;11.604;2023-03-07T15:08:24;5.00;;;3.80;;
4051;SDS011;2040;50.924;11.604;2023-03-07T15:10:55;8.03;;;3.37;;
4051;SDS011;2040;50.924;11.604;2023-03-07T15:13:31;4.87;;;3.17;;
4051;SDS011;2040;50.924;11.604;2023-03-07T15:16:10;4.77;;;2.90;;
4051;SDS011;2040;50.924;11.604;2023-03-07T15:18:42;10.93;;;3.00;;
4051;SDS011;2040;50.924;11.604;2023-03-07T15:21:15;4.17;;;2.70;;
4051;SDS011;2040;50.924;11.604;2023-03-07T15:23:51;5.10;;;2.90;;
4051;SDS011;2040;50.924;11.604;2023-03-07T15:26:18;5.43;;;2.90;;
4051;SDS011;2040;50.924;11.604;2023-03-07T15:28:47;5.17;;;3.37;;
4051;SDS011;2040;50.924;11.604;2023-03-07T15:31:13;4.70;;;3.00;;
4051;SDS011;2040;50.924;11.604;2023-03-07T15:33:39;2.50;;;2.30;;
4051;SDS011;2040;50.924;11.604;2023-03-07T15:38:47;5.40;;;2.97;;
4051;SDS011;2040;50.924;11.604;2023-03-07T15:44:04;9.23;;;2.90;;
4051;SDS011;2040;50.924;11.604;2023-03-07T15:46:31;4.40;;;3.00;;
4051;SDS011;2040;50.924;11.604;2023-03-07T15:48:58;4.67;;;2.43;;
4051;SDS011;2040;50.924;11.604;2023-03-07T15:51:24;4.97;;;3.20;;
4051;SDS011;2040;50.924;11.604;2023-03-07T15:54:02;6.30;;;3.70;;
4051;SDS011;2040;50.924;11.604;2023-03-07T15:56:38;9.57;;;2.80;;
4051;SDS011;2040;50.924;11.604;2023-03-07T15:59:06;7.33;;;2.90;;
4051;SDS011;2040;50.924;11.604;2023-03-07T16:01:42;5.67;;;3.20;;
4051;SDS011;2040;50.924;11.604;2023-03-07T16:04:29;3.87;;;2.90;;
4051;SDS011;2040;50.924;11.604;2023-03-07T16:06:58;5.73;;;2.60;;
4051;SDS011;2040;50.924;11.604;2023-03-07T16:09:24;4.00;;;3.13;;
4051;SDS011;2040;50.924;11.604;2023-03-07T16:11:49;4.60;;;2.70;;
4051;SDS011;2040;50.924;11.604;2023-03-07T16:14:22;3.80;;;2.60;;
4051;SDS011;2040;50.924;11.604;2023-03-07T16:17:00;3.93;;;2.60;;
4051;SDS011;2040;50.924;11.604;2023-03-07T16:19:28;8.97;;;3.30;;
4051;SDS011;2040;50.924;11.604;2023-03-07T16:21:54;3.00;;;2.13;;
4051;SDS011;2040;50.924;11.604;2023-03-07T16:24:20;2.93;;;2.43;;
4051;SDS011;2040;50.924;11.604;2023-03-07T16:26:45;4.50;;;3.07;;
4051;SDS011;2040;50.924;11.604;2023-03-07T16:29:15;4.20;;;2.40;;
4051;SDS011;2040;50.924;11.604;2023-03-07T16:31:43;4.80;;;3.03;;
4051;SDS011;2040;50.924;11.604;2023-03-07T16:34:15;3.97;;;2.80;;
4051;SDS011;2040;50.924;11.604;2023-03-07T16:36:46;6.33;;;2.93;;
4051;SDS011;2040;50.924;11.604;2023-03-07T16:39:12;6.33;;;3.60;;
4051;SDS011;2040;50.924;11.604;2023-03-07T16:41:42;8.07;;;3.37;;
4051;SDS011;2040;50.924;11.604;2023-03-07T16:44:14;7.10;;;4.20;;
4051;SDS011;2040;50.924;11.604;2023-03-07T16:46:40;3.77;;;2.33;;
4051;SDS011;2040;50.924;11.604;2023-03-07T16:49:09;6.20;;;3.90;;
4051;SDS011;2040;50.924;11.604;2023-03-07T16:51:39;7.23;;;3.80;;
4051;SDS011;2040;50.924;11.604;2023-03-07T16:54:05;5.87;;;3.17;;
4051;SDS011;2040;50.924;11.604;2023-03-07T16:56:31;7.53;;;3.43;;
4051;SDS011;2040;50.924;11.604;2023-03-07T16:59:00;4.67;;;3.10;;
4051;SDS011;2040;50.924;11.604;2023-03-07T17:01:26;6.53;;;3.40;;
4051;SDS011;2040;50.924;11.604;2023-03-07T17:03:51;7.97;;;4.07;;
4051;SDS011;2040;50.924;11.604;2023-03-07T17:06:20;3.23;;;2.50;;
4051;SDS011;2040;50.924;11.604;2023-03-07T17:08:46;5.13;;;3.43;;
4051;SDS011;2040;50.924;11.604;2023-03-07T17:11:22;9.20;;;5.30;;
4051;SDS011;2040;50.924;11.604;2023-03-07T17:13:49;3.10;;;1.83;;
4051;SDS011;2040;50.924;11.604;2023-03-07T17:16:19;8.93;;;3.20;;
4051;SDS011;2040;50.924;11.604;2023-03-07T17:18:45;4.73;;;2.93;;
4051;SDS011;2040;50.924;11.604;2023-03-07T17:21:12;6.20;;;2.30;;